Time;durP1;ratioP1;P1;durP2;ratioP2;P2;SDS_P1;SDS_P2;PMS_P1;PMS_P2;Temp;Humidity;BMP_temperature;BMP_pressure;BME280_temperature;BME280_humidity;BME280_pressure;Samples;Min_cycle;Max_cycle;Signal;HPM_P1;HPM_P2
2022/02/04 00:20:13;;;;;;;35.53;25.35;;;;;;;;;;4404761;32;20130;-69
2022/02/04 00:25:36;;;;;;;25.58;17.35;;;;;;;;;;4407942;32;20091;-69
2022/02/04 00:28:08;;;;;;;25.12;17.10;;;;;;;;;;4393181;32;20110;-69
2022/02/04 00:30:39;;;;;;;25.73;16.98;;;;;;;;;;4393383;32;20031;-69
2022/02/04 00:33:06;;;;;;;20.40;16.27;;;;;;;;;;4393244;32;20065;-69
2022/02/04 00:38:20;;;;;;;22.98;17.10;;;;;;;;;;4392945;32;20027;-69
2022/02/04 00:40:49;;;;;;;21.15;16.25;;;;;;;;;;4391011;32;20023;-69
2022/02/04 00:43:16;;;;;;;24.85;17.33;;;;;;;;;;4391526;32;20069;-69
2022/02/04 00:51:00;;;;;;;24.73;16.48;;;;;;;;;;4392104;32;20031;-70
2022/02/04 01:26:07;;;;;;;18.08;10.90;;;;;;;;;;4407500;32;20379;-72
2022/02/04 01:28:33;;;;;;;20.33;12.37;;;;;;;;;;4406377;32;20593;-71
2022/02/04 01:30:59;;;;;;;19.87;11.32;;;;;;;;;;4406443;32;20066;-69
2022/02/04 01:33:24;;;;;;;;;;;;;;;;;;4406471;32;20049;-69
2022/02/04 01:35:50;;;;;;;18.50;11.90;;;;;;;;;;4405036;32;19945;-69
2022/02/04 01:38:15;;;;;;;;;;;;;;;;;;4394365;32;20052;-69
2022/02/04 01:40:40;;;;;;;18.60;10.63;;;;;;;;;;4391860;32;19937;-70
2022/02/04 01:43:05;;;;;;;;;;;;;;;;;;4388835;32;20092;-69
2022/02/04 01:45:31;;;;;;;19.80;11.27;;;;;;;;;;4390100;32;19982;-70
2022/02/04 01:47:56;;;;;;;;;;;;;;;;;;4391625;32;20499;-70
2022/02/04 01:50:31;;;;;;;14.02;10.30;;;;;;;;;;4392149;32;20272;-68
2022/02/04 01:52:57;;;;;;;16.65;10.90;;;;;;;;;;4392700;32;20096;-69
2022/02/04 01:55:22;;;;;;;;;;;;;;;;;;4391162;32;20425;-68
2022/02/04 01:57:47;;;;;;;14.57;9.45;;;;;;;;;;4391832;32;19956;-69
2022/02/04 02:00:12;;;;;;;;;;;;;;;;;;4390688;32;20481;-70
2022/02/04 02:02:37;;;;;;;17.92;10.05;;;;;;;;;;4391119;32;19992;-69
2022/02/04 02:05:02;;;;;;;;;;;;;;;;;;4393217;32;20049;-69
2022/02/04 02:07:29;;;;;;;21.95;9.85;;;;;;;;;;4406812;32;19938;-70
2022/02/04 02:10:06;;;;;;;15.90;8.40;;;;;;;;;;4406942;32;20333;-69
2022/02/04 02:12:39;;;;;;;11.63;7.78;;;;;;;;;;4398359;32;20406;-69
2022/02/04 02:40:26;;;;;;;15.95;7.25;;;;;;;;;;4390383;32;20041;-70
2022/02/04 02:55:44;;;;;;;12.32;7.25;;;;;;;;;;4402094;32;20481;-69
2022/02/04 02:58:14;;;;;;;15.30;7.50;;;;;;;;;;4408088;32;20030;-69
2022/02/04 03:03:13;;;;;;;13.55;7.60;;;;;;;;;;4409470;32;20076;-69
2022/02/04 03:05:38;;;;;;;11.43;7.45;;;;;;;;;;4408085;32;20404;-68
2022/02/04 03:08:03;;;;;;;;;;;;;;;;;;4409930;32;20022;-69
2022/02/04 03:10:28;;;;;;;15.43;7.30;;;;;;;;;;4408814;32;19941;-69
2022/02/04 03:12:53;;;;;;;;;;;;;;;;;;4408654;32;20018;-69
2022/02/04 03:15:20;;;;;;;12.13;7.28;;;;;;;;;;4408026;32;19944;-69
2022/02/04 03:17:48;;;;;;;15.32;7.37;;;;;;;;;;4407976;32;20026;-68
2022/02/04 03:20:15;;;;;;;14.55;6.97;;;;;;;;;;4409055;32;20057;-69
2022/02/04 03:22:40;;;;;;;11.70;6.95;;;;;;;;;;4408863;32;20022;-68
2022/02/04 03:25:08;;;;;;;;;;;;;;;;;;4408971;32;20022;-68
2022/02/04 03:27:40;;;;;;;12.45;7.47;;;;;;;;;;4408006;32;19955;-69
2022/02/04 03:30:12;;;;;;;11.93;7.85;;;;;;;;;;4407080;32;20019;-69
2022/02/04 03:32:42;;;;;;;11.93;6.78;;;;;;;;;;4408630;32;20015;-70
2022/02/04 03:35:08;;;;;;;9.93;6.68;;;;;;;;;;4408650;32;20030;-69
2022/02/04 03:37:33;;;;;;;;;;;;;;;;;;4408464;32;20030;-68
2022/02/04 03:39:58;;;;;;;13.90;7.25;;;;;;;;;;4400262;32;19946;-69
2022/02/04 03:42:23;;;;;;;;;;;;;;;;;;4409446;32;20183;-69
2022/02/04 03:44:48;;;;;;;18.30;6.43;;;;;;;;;;4409287;32;20316;-70
2022/02/04 03:47:13;;;;;;;;;;;;;;;;;;4408832;32;20038;-69
2022/02/04 03:49:38;;;;;;;10.52;6.32;;;;;;;;;;4407629;32;20291;-69
2022/02/04 03:52:03;;;;;;;;;;;;;;;;;;4407721;32;20053;-68
2022/02/04 03:54:29;;;;;;;11.12;6.80;;;;;;;;;;4408576;32;19970;-68
2022/02/04 03:56:54;;;;;;;;;;;;;;;;;;4409397;32;20184;-69
2022/02/04 03:59:19;;;;;;;11.80;6.90;;;;;;;;;;4408843;32;19967;-68
2022/02/04 04:01:44;;;;;;;;;;;;;;;;;;4405622;32;20140;-69
2022/02/04 04:04:09;;;;;;;16.62;7.10;;;;;;;;;;4407289;32;19937;-69
2022/02/04 04:06:34;;;;;;;;;;;;;;;;;;4405499;32;20027;-69
2022/02/04 04:08:59;;;;;;;17.86;6.00;;;;;;;;;;4408016;32;19942;-69
2022/02/04 04:11:25;;;;;;;;;;;;;;;;;;4395641;32;20394;-68
2022/02/04 04:13:50;;;;;;;12.02;6.30;;;;;;;;;;4393279;32;19946;-69
2022/02/04 04:16:16;;;;;;;;;;;;;;;;;;4392140;32;20022;-68
2022/02/04 04:18:41;;;;;;;10.55;4.87;;;;;;;;;;4401901;32;20327;-68
2022/02/04 04:21:06;;;;;;;;;;;;;;;;;;4409078;32;20058;-70
2022/02/04 04:23:31;;;;;;;9.88;4.75;;;;;;;;;;4408368;32;20310;-69
2022/02/04 04:25:56;;;;;;;;;;;;;;;;;;4405827;32;20045;-68
2022/02/04 04:28:21;;;;;;;14.10;5.87;;;;;;;;;;4408160;32;20341;-69
2022/02/04 04:30:46;;;;;;;;;;;;;;;;;;4405782;32;20023;-69
2022/02/04 04:33:12;;;;;;;14.52;5.90;;;;;;;;;;4400689;32;20312;-70
2022/02/04 04:35:37;;;;;;;;;;;;;;;;;;4391994;32;20014;-69
2022/02/04 04:38:24;;;;;;;12.20;4.53;;;;;;;;;;4393021;32;19938;-69
2022/02/04 05:29:28;;;;;;;8.88;3.60;;;;;;;;;;4402135;32;20050;-70
2022/02/04 05:31:53;;;;;;;;;;;;;;;;;;4405515;32;20083;-71
2022/02/04 05:34:20;;;;;;;8.35;3.80;;;;;;;;;;4404181;32;20319;-70
2022/02/04 05:36:48;;;;;;;8.88;3.40;;;;;;;;;;4406735;32;20118;-68
2022/02/04 05:39:15;;;;;;;8.10;3.50;;;;;;;;;;4405787;32;20379;-69
2022/02/04 05:41:45;;;;;;;10.35;3.62;;;;;;;;;;4393549;32;20061;-70
2022/02/04 05:44:13;;;;;;;7.05;3.83;;;;;;;;;;4390319;32;20034;-69
2022/02/04 05:46:49;;;;;;;6.32;3.80;;;;;;;;;;4390461;32;20075;-69
2022/02/04 05:49:17;;;;;;;11.27;4.75;;;;;;;;;;4390889;32;20023;-68
2022/02/04 05:57:06;;;;;;;11.38;3.87;;;;;;;;;;4391379;32;20092;-69
2022/02/04 06:00:15;;;;;;;7.95;4.97;;;;;;;;;;4388924;32;20011;-70
2022/02/04 06:02:30;;;;;;;5.68;3.72;;;;;;;;;;4391773;32;20348;-67
2022/02/04 06:05:07;;;;;;;7.30;4.15;;;;;;;;;;4391100;32;20031;-70
2022/02/04 06:07:49;;;;;;;8.57;4.93;;;;;;;;;;4394378;32;20053;-68
2022/02/04 06:10:32;;;;;;;10.80;5.20;;;;;;;;;;4389122;32;20384;-69
2022/02/04 06:23:44;;;;;;;16.85;7.57;;;;;;;;;;4391445;32;20134;-70
2022/02/04 06:26:09;;;;;;;;;;;;;;;;;;4391668;32;20026;-70
2022/02/04 06:28:35;;;;;;;16.17;8.57;;;;;;;;;;4391247;32;19938;-71
2022/02/04 06:31:00;;;;;;;15.40;8.07;;;;;;;;;;4388250;32;20119;-70
2022/02/04 06:33:26;;;;;;;;;;;;;;;;;;4390441;32;20089;-69
2022/02/04 06:35:51;;;;;;;18.25;10.40;;;;;;;;;;4391103;32;19974;-70
2022/02/04 06:38:16;;;;;;;;;;;;;;;;;;4390773;32;20081;-69
2022/02/04 06:40:41;;;;;;;15.90;9.95;;;;;;;;;;4390679;32;19942;-69
2022/02/04 06:43:06;;;;;;;;;;;;;;;;;;4387665;32;20050;-71
2022/02/04 06:45:31;;;;;;;18.65;9.50;;;;;;;;;;4398364;32;20282;-69
2022/02/04 06:47:56;;;;;;;;;;;;;;;;;;4405043;32;20532;-69
2022/02/04 06:50:22;;;;;;;13.68;8.93;;;;;;;;;;4406244;32;19986;-70
2022/02/04 06:52:48;;;;;;;;;;;;;;;;;;4404069;32;20091;-70
2022/02/04 06:55:13;;;;;;;12.23;8.00;;;;;;;;;;4403525;32;19941;-69
2022/02/04 06:57:42;;;;;;;;;;;;;;;;;;4405827;32;20529;-70
2022/02/04 07:00:08;;;;;;;14.65;9.85;;;;;;;;;;4403824;32;19941;-69
2022/02/04 07:02:34;;;;;;;20.05;9.25;;;;;;;;;;4390647;32;20076;-69
2022/02/04 07:04:59;;;;;;;;;;;;;;;;;;4391061;32;20046;-70
2022/02/04 07:07:24;;;;;;;14.00;8.50;;;;;;;;;;4389503;32;19992;-70
2022/02/04 07:09:56;;;;;;;;;;;;;;;;;;4389089;32;20014;-69
2022/02/04 07:12:32;;;;;;;15.60;9.05;;;;;;;;;;4389629;32;19934;-70
2022/02/04 07:20:10;;;;;;;11.98;9.48;;;;;;;;;;4390828;32;20073;-70
2022/02/04 07:22:35;;;;;;;;;;;;;;;;;;4388956;32;20031;-71
2022/02/04 07:25:03;;;;;;;18.08;11.23;;;;;;;;;;4390349;32;19960;-70
2022/02/04 07:27:29;;;;;;;14.52;11.38;;;;;;;;;;4389300;32;20125;-69
2022/02/04 07:29:55;;;;;;;;;;;;;;;;;;4392413;32;20069;-70
2022/02/04 07:42:39;;;;;;;17.00;11.63;;;;;;;;;;4407260;32;20101;-72
2022/02/04 07:45:04;;;;;;;;;;;;;;;;;;4407040;32;20026;-70
2022/02/04 07:47:29;;;;;;;17.83;13.00;;;;;;;;;;4390437;32;19993;-70
2022/02/04 07:49:54;;;;;;;;;;;;;;;;;;4392229;32;20035;-70
2022/02/04 07:52:19;;;;;;;13.23;11.93;;;;;;;;;;4390884;32;20299;-69
2022/02/04 07:54:45;;;;;;;;;;;;;;;;;;4391867;32;20062;-69
2022/02/04 07:57:11;;;;;;;14.35;12.60;;;;;;;;;;4399716;32;19948;-69
2022/02/04 07:59:36;;;;;;;;;;;;;;;;;;4407300;32;20446;-71
2022/02/04 08:02:01;;;;;;;16.05;11.57;;;;;;;;;;4402352;32;20304;-69
2022/02/04 08:04:30;;;;;;;;;;;;;;;;;;4399147;32;20065;-69
2022/02/04 08:07:01;;;;;;;13.98;10.40;;;;;;;;;;4392660;32;19934;-70
2022/02/04 08:09:45;;;;;;;12.98;9.90;;;;;;;;;;4399639;32;20058;-69
2022/02/04 08:15:09;;;;;;;13.35;10.73;;;;;;;;;;4393470;32;20023;-69
2022/02/04 08:17:56;;;;;;;14.07;10.90;;;;;;;;;;4391705;32;20348;-69
2022/02/04 08:25:51;;;;;;;11.43;9.15;;;;;;;;;;4393144;32;19948;-68
2022/02/04 08:31:02;;;;;;;13.23;8.32;;;;;;;;;;4402218;32;20466;-69
2022/02/04 08:33:56;;;;;;;11.93;8.30;;;;;;;;;;4402654;32;20027;-69
2022/02/04 08:39:17;;;;;;;13.43;8.18;;;;;;;;;;4400720;32;20084;-70
2022/02/04 08:47:52;;;;;;;12.13;8.10;;;;;;;;;;4388832;32;20039;-69
2022/02/04 08:50:56;;;;;;;10.90;7.78;;;;;;;;;;4368531;32;20086;-69
2022/02/04 08:55:36;;;;;;;;;;;;;;;;;;4400775;32;20070;-69
2022/02/04 09:00:48;;;;;;;15.23;10.25;;;;;;;;;;4407223;32;20023;-69
2022/02/04 09:03:37;;;;;;;10.63;9.10;;;;;;;;;;4406829;32;20030;-69
2022/02/04 09:06:09;;;;;;;11.35;9.48;;;;;;;;;;4403719;32;20148;-69
2022/02/04 09:08:38;;;;;;;13.88;9.90;;;;;;;;;;4391181;32;20053;-69
2022/02/04 09:11:07;;;;;;;15.18;10.20;;;;;;;;;;4393105;32;20141;-70
2022/02/04 09:19:16;;;;;;;14.38;10.50;;;;;;;;;;4386729;32;20100;-69
2022/02/04 09:24:13;;;;;;;11.52;9.95;;;;;;;;;;4405758;32;20060;-70
2022/02/04 09:26:38;;;;;;;13.40;10.75;;;;;;;;;;4404956;32;20140;-69
2022/02/04 09:29:03;;;;;;;;;;;;;;;;;;4396195;32;20058;-70
2022/02/04 09:31:29;;;;;;;13.75;8.98;;;;;;;;;;4401547;32;19967;-70
2022/02/04 09:33:54;;;;;;;;;;;;;;;;;;4396751;32;20069;-70
2022/02/04 09:36:19;;;;;;;10.15;8.38;;;;;;;;;;4400384;32;19953;-70
2022/02/04 09:38:44;;;;;;;;;;;;;;;;;;4407918;32;20450;-70
2022/02/04 09:41:09;;;;;;;9.95;7.30;;;;;;;;;;4401765;32;20241;-69
2022/02/04 09:43:34;;;;;;;;;;;;;;;;;;4395606;32;20425;-69
2022/02/04 09:46:00;;;;;;;11.63;8.40;;;;;;;;;;4399270;32;20327;-70
2022/02/04 09:48:25;;;;;;;;;;;;;;;;;;4403166;32;20152;-69
2022/02/04 09:50:53;;;;;;;9.92;7.04;;;;;;;;;;4396104;32;19938;-68
2022/02/04 10:12:51;;;;;;;6.80;6.10;;;;;;;;;;4403189;32;20044;-69
2022/02/04 10:17:42;;;;;;;;;;;;;;;;;;4393307;32;20146;-69
2022/02/04 10:20:10;;;;;;;7.28;6.10;;;;;;;;;;4391457;32;19938;-70
2022/02/04 10:22:36;;;;;;;7.05;6.28;;;;;;;;;;4395665;32;20079;-69
2022/02/04 10:25:01;;;;;;;;;;;;;;;;;;4389959;32;20026;-69
2022/02/04 10:27:29;;;;;;;7.40;6.28;;;;;;;;;;4389377;32;19937;-70
2022/02/04 10:29:55;;;;;;;7.68;6.05;;;;;;;;;;4388529;32;20189;-70
2022/02/04 10:32:24;;;;;;;6.05;5.45;;;;;;;;;;4400279;32;20101;-69
2022/02/04 10:35:20;;;;;;;7.82;6.65;;;;;;;;;;4389511;32;20030;-69
2022/02/04 10:40:58;;;;;;;6.97;5.75;;;;;;;;;;4399431;32;20045;-69
2022/02/04 10:46:47;;;;;;;7.43;5.53;;;;;;;;;;4396395;32;20026;-69
2022/02/04 10:49:36;;;;;;;6.78;5.47;;;;;;;;;;4399536;32;20049;-68
2022/02/04 10:52:24;;;;;;;6.82;5.50;;;;;;;;;;4405691;32;20034;-69
2022/02/04 10:57:49;;;;;;;16.83;4.97;;;;;;;;;;4390217;32;20064;-68
2022/02/04 11:35:22;;;;;;;6.15;4.55;;;;;;;;;;4400520;32;20031;-70
2022/02/04 11:56:58;;;;;;;7.12;4.90;;;;;;;;;;4407934;32;20019;-69
2022/02/04 11:59:45;;;;;;;8.13;4.62;;;;;;;;;;4406543;32;20396;-69
2022/02/04 12:02:33;;;;;;;7.28;4.25;;;;;;;;;;4395902;32;20031;-69
2022/02/04 12:05:08;;;;;;;7.35;4.20;;;;;;;;;;4392989;32;20037;-69
2022/02/04 12:07:33;;;;;;;8.23;4.30;;;;;;;;;;4390327;32;20026;-69
2022/02/04 12:09:58;;;;;;;;;;;;;;;;;;4390089;32;20064;-70
2022/02/04 12:12:42;;;;;;;7.37;4.90;;;;;;;;;;4397258;32;20332;-69
2022/02/04 12:15:26;;;;;;;9.00;4.45;;;;;;;;;;4405163;32;20184;-69
2022/02/04 12:17:51;;;;;;;7.18;5.00;;;;;;;;;;4391073;32;20026;-70
2022/02/04 12:20:16;;;;;;;;;;;;;;;;;;4394774;32;20134;-69
2022/02/04 12:22:54;;;;;;;12.00;5.10;;;;;;;;;;4391148;32;20339;-69
2022/02/04 12:25:39;;;;;;;11.68;5.72;;;;;;;;;;4397005;32;20371;-70
2022/02/04 12:28:04;;;;;;;8.55;5.78;;;;;;;;;;4404569;32;20035;-69
2022/02/04 12:30:29;;;;;;;;;;;;;;;;;;4405423;32;20095;-69
2022/02/04 12:32:54;;;;;;;10.43;5.72;;;;;;;;;;4399888;32;19981;-69
2022/02/04 12:35:19;;;;;;;;;;;;;;;;;;4405819;32;20022;-68
2022/02/04 12:37:45;;;;;;;11.88;5.68;;;;;;;;;;4406082;32;19969;-68
2022/02/04 12:40:10;;;;;;;;;;;;;;;;;;4406031;32;20417;-69
2022/02/04 12:42:35;;;;;;;16.35;6.60;;;;;;;;;;4405745;32;19968;-68
2022/02/04 12:45:05;;;;;;;;;;;;;;;;;;4402470;32;20384;-68
2022/02/04 12:47:31;;;;;;;8.07;5.30;;;;;;;;;;4406296;32;20229;-68
2022/02/04 12:49:56;;;;;;;10.48;6.18;;;;;;;;;;4407247;32;20022;-69
2022/02/04 12:52:29;;;;;;;;;;;;;;;;;;4391219;32;20097;-68
2022/02/04 12:55:05;;;;;;;11.65;6.82;;;;;;;;;;4399013;32;19937;-71
2022/02/04 12:57:35;;;;;;;;;;;;;;;;;;4403873;32;20027;-70
2022/02/04 13:08:03;;;;;;;15.32;7.72;;;;;;;;;;4390866;32;20403;-68
2022/02/04 13:10:29;;;;;;;16.85;7.72;;;;;;;;;;4393686;32;20022;-68
2022/02/04 13:12:54;;;;;;;;;;;;;;;;;;4397989;32;20042;-68
2022/02/04 13:15:20;;;;;;;17.85;7.97;;;;;;;;;;4398053;32;19945;-69
2022/02/04 13:17:45;;;;;;;;;;;;;;;;;;4407020;32;20163;-68
2022/02/04 13:20:11;;;;;;;16.22;8.52;;;;;;;;;;4404262;32;19950;-68
2022/02/04 13:22:37;;;;;;;;;;;;;;;;;;4404252;32;20015;-69
2022/02/04 13:25:05;;;;;;;5.50;1.75;;;;;;;;;;4404802;32;19948;-69
2022/02/04 13:27:30;;;;;;;10.95;2.08;;;;;;;;;;4405372;32;20022;-69
2022/02/04 13:29:55;;;;;;;8.40;2.12;;;;;;;;;;4398307;32;20042;-70
2022/02/04 13:32:20;;;;;;;;;;;;;;;;;;4394366;32;20107;-69
2022/02/04 13:34:45;;;;;;;5.55;1.20;;;;;;;;;;4393345;32;19973;-69
2022/02/04 13:37:13;;;;;;;;;;;;;;;;;;4391109;32;20080;-68
2022/02/04 13:39:55;;;;;;;4.22;1.12;;;;;;;;;;4399618;32;19975;-69
2022/02/04 13:42:30;;;;;;;5.45;1.27;;;;;;;;;;4391751;32;20475;-69
2022/02/04 13:45:04;;;;;;;3.22;2.10;;;;;;;;;;4392907;32;20101;-69
2022/02/04 13:47:53;;;;;;;2.22;1.02;;;;;;;;;;4393885;32;20468;-71
2022/02/04 13:58:09;;;;;;;4.45;1.45;;;;;;;;;;4405023;32;19949;-69
2022/02/04 14:01:04;;;;;;;2.28;1.02;;;;;;;;;;4397015;32;20026;-70
2022/02/04 14:03:31;;;;;;;1.33;0.80;;;;;;;;;;4392317;32;20058;-69
2022/02/04 14:06:09;;;;;;;3.00;1.00;;;;;;;;;;4391015;32;20030;-69
2022/02/04 14:08:48;;;;;;;8.25;1.30;;;;;;;;;;4390599;32;20110;-69
2022/02/04 14:11:25;;;;;;;0.70;0.65;;;;;;;;;;4394831;32;20423;-69
2022/02/04 14:13:50;;;;;;;;;;;;;;;;;;4402463;32;20101;-69
2022/02/04 14:16:19;;;;;;;1.90;0.68;;;;;;;;;;4414924;32;19936;-69
2022/02/04 14:18:44;;;;;;;1.50;0.95;;;;;;;;;;4420727;32;20034;-68
2022/02/04 14:21:10;;;;;;;;;;;;;;;;;;4411436;32;20408;-69
2022/02/04 14:23:35;;;;;;;5.65;1.83;;;;;;;;;;4397217;32;20040;-70
2022/02/04 14:26:05;;;;;;;;;;;;;;;;;;4389969;32;20053;-69
2022/02/04 14:28:41;;;;;;;1.42;0.93;;;;;;;;;;4390480;32;19945;-70
2022/02/04 14:31:24;;;;;;;1.50;0.70;;;;;;;;;;4389853;32;20057;-70
2022/02/04 14:36:49;;;;;;;4.57;1.05;;;;;;;;;;4420744;32;20040;-69
2022/02/04 14:53:12;;;;;;;7.85;1.02;;;;;;;;;;4409801;32;20041;-69
2022/02/04 15:01:28;;;;;;;6.90;1.87;;;;;;;;;;4410455;32;20049;-70
2022/02/04 15:06:37;;;;;;;7.68;1.35;;;;;;;;;;4409397;32;20336;-70
2022/02/04 15:09:05;;;;;;;5.70;1.10;;;;;;;;;;4398122;32;20011;-69
2022/02/04 15:11:33;;;;;;;5.87;1.20;;;;;;;;;;4394315;32;20014;-70
2022/02/04 15:13:59;;;;;;;4.78;1.00;;;;;;;;;;4392721;32;20053;-69
2022/02/04 15:16:24;;;;;;;5.07;1.02;;;;;;;;;;4394872;32;20053;-72
2022/02/04 15:18:50;;;;;;;;;;;;;;;;;;4395881;32;20038;-70
2022/02/04 15:21:17;;;;;;;3.67;1.45;;;;;;;;;;4393345;32;19942;-69
2022/02/04 15:23:46;;;;;;;5.15;1.50;;;;;;;;;;4395714;32;20057;-70
2022/02/04 15:26:13;;;;;;;4.12;0.98;;;;;;;;;;4395643;32;20446;-69
2022/02/04 15:28:42;;;;;;;3.35;0.93;;;;;;;;;;4395006;32;20045;-71
2022/02/04 15:31:15;;;;;;;5.15;0.93;;;;;;;;;;4392946;32;20050;-70
2022/02/04 15:33:41;;;;;;;3.50;1.00;;;;;;;;;;4390956;32;20014;-69
2022/02/04 15:36:06;;;;;;;;;;;;;;;;;;4408119;32;20059;-70
2022/02/04 15:38:31;;;;;;;3.12;1.10;;;;;;;;;;4409486;32;19933;-69
2022/02/04 15:40:58;;;;;;;;;;;;;;;;;;4410935;32;20725;-69
2022/02/04 15:43:23;;;;;;;5.93;1.40;;;;;;;;;;4402309;32;19934;-69
2022/02/04 15:46:15;;;;;;;;;;;;;;;;;;4394743;32;20077;-70
2022/02/04 15:51:38;;;;;;;7.50;1.62;;;;;;;;;;4394803;32;20106;-69
2022/02/04 15:54:42;;;;;;;3.30;1.65;;;;;;;;;;4406541;32;20036;-69
2022/02/04 16:02:14;;;;;;;10.15;2.28;;;;;;;;;;4394737;32;20058;-69
2022/02/04 16:04:43;;;;;;;8.18;2.92;;;;;;;;;;4391159;32;20068;-68
2022/02/04 16:07:08;;;;;;;5.10;1.75;;;;;;;;;;4390867;32;20054;-69
2022/02/04 16:09:34;;;;;;;;;;;;;;;;;;4394101;32;20026;-68
2022/02/04 16:12:07;;;;;;;12.70;2.06;;;;;;;;;;4389890;32;19938;-70
2022/02/04 16:14:41;;;;;;;9.07;1.98;;;;;;;;;;4392363;32;20010;-69
2022/02/04 16:19:42;;;;;;;12.27;1.92;;;;;;;;;;4391684;32;20139;-70
2022/02/04 16:22:26;;;;;;;5.22;1.60;;;;;;;;;;4392199;32;20032;-69
2022/02/04 16:25:14;;;;;;;11.23;2.70;;;;;;;;;;4390572;32;20348;-68
2022/02/04 16:30:05;;;;;;;;;;;;;;;;;;4393028;32;20034;-70
2022/02/04 16:32:30;;;;;;;9.35;2.53;;;;;;;;;;4393088;32;20361;-70
2022/02/04 16:34:55;;;;;;;;;;;;;;;;;;4391571;32;20122;-71
2022/02/04 16:37:33;;;;;;;7.82;2.62;;;;;;;;;;4390480;32;19968;-69
2022/02/04 16:39:59;;;;;;;11.32;2.45;;;;;;;;;;4390680;32;20046;-70
2022/02/04 16:42:27;;;;;;;15.77;2.50;;;;;;;;;;4392237;32;20057;-71
2022/02/04 16:44:52;;;;;;;11.55;2.40;;;;;;;;;;4390329;32;20158;-69
2022/02/04 16:47:17;;;;;;;;;;;;;;;;;;4392298;32;20125;-71
2022/02/04 16:49:42;;;;;;;15.13;2.87;;;;;;;;;;4391771;32;19972;-70
2022/02/04 16:52:07;;;;;;;;;;;;;;;;;;4394287;32;20385;-70
2022/02/04 16:54:33;;;;;;;10.93;2.55;;;;;;;;;;4402567;32;19948;-70
2022/02/04 16:56:58;;;;;;;;;;;;;;;;;;4403563;32;20068;-70
2022/02/04 16:59:23;;;;;;;16.15;4.00;;;;;;;;;;4399594;32;20029;-70
2022/02/04 17:01:48;;;;;;;;;;;;;;;;;;4391034;32;20122;-70
2022/02/04 17:04:14;;;;;;;15.65;4.85;;;;;;;;;;4406064;32;19957;-70
2022/02/04 17:06:44;;;;;;;;;;;;;;;;;;4394482;32;20031;-71
2022/02/04 17:11:41;;;;;;;23.35;4.93;;;;;;;;;;4395734;32;20066;-69
2022/02/04 17:14:06;;;;;;;14.20;3.87;;;;;;;;;;4395282;32;20037;-71
2022/02/04 17:16:31;;;;;;;;;;;;;;;;;;4416673;32;20056;-72
2022/02/04 17:18:57;;;;;;;13.45;3.30;;;;;;;;;;4403573;32;19992;-69
2022/02/04 17:21:24;;;;;;;;;;;;;;;;;;4391788;32;20035;-71
2022/02/04 17:23:52;;;;;;;14.48;3.72;;;;;;;;;;4404061;32;19934;-71
2022/02/04 17:26:19;;;;;;;23.12;4.15;;;;;;;;;;4404489;32;20518;-71
2022/02/04 17:28:44;;;;;;;17.45;3.75;;;;;;;;;;4405405;32;20019;-71
2022/02/04 17:31:09;;;;;;;;;;;;;;;;;;4405729;32;20014;-72
2022/02/04 17:33:37;;;;;;;12.10;2.92;;;;;;;;;;4405439;32;19952;-70
2022/02/04 17:36:02;;;;;;;14.07;4.15;;;;;;;;;;4405345;32;20026;-71
2022/02/04 17:38:29;;;;;;;;;;;;;;;;;;4407528;32;20084;-71
2022/02/04 17:40:56;;;;;;;19.80;4.55;;;;;;;;;;4404930;32;19987;-72
2022/02/04 17:43:21;;;;;;;14.98;3.55;;;;;;;;;;4392961;32;20023;-72
2022/02/04 17:45:47;;;;;;;;;;;;;;;;;;4390748;32;20234;-72
2022/02/04 17:48:29;;;;;;;11.90;3.10;;;;;;;;;;4391171;32;19972;-71
2022/02/04 17:51:16;;;;;;;15.50;3.85;;;;;;;;;;4419761;32;20006;-72
2022/02/04 17:53:55;;;;;;;14.20;4.03;;;;;;;;;;4389595;32;20026;-71
2022/02/04 17:56:50;;;;;;;16.25;5.15;;;;;;;;;;4389897;32;20055;-70
2022/02/04 17:59:47;;;;;;;14.15;4.05;;;;;;;;;;4390229;32;20097;-71
2022/02/04 18:07:21;;;;;;;22.27;5.00;;;;;;;;;;4391372;32;19972;-71
2022/02/04 18:09:47;;;;;;;13.00;4.80;;;;;;;;;;4399677;32;20015;-72
2022/02/04 18:12:12;;;;;;;;;;;;;;;;;;4406918;32;20091;-71
2022/02/04 18:14:37;;;;;;;13.73;4.45;;;;;;;;;;4405861;32;19933;-71
2022/02/04 18:17:02;;;;;;;;;;;;;;;;;;4404489;32;20566;-72
2022/02/04 18:19:27;;;;;;;13.30;4.70;;;;;;;;;;4396013;32;19969;-70
2022/02/04 18:21:52;;;;;;;;;;;;;;;;;;4390081;32;20019;-71
2022/02/04 18:24:18;;;;;;;32.67;7.10;;;;;;;;;;4393357;32;19969;-71
2022/02/04 18:26:43;;;;;;;;;;;;;;;;;;4391957;32;20034;-71
2022/02/04 18:29:10;;;;;;;10.70;4.75;;;;;;;;;;4390557;32;19968;-69
2022/02/04 18:31:36;;;;;;;16.48;5.18;;;;;;;;;;4389953;32;20023;-71
2022/02/04 18:34:02;;;;;;;11.63;4.68;;;;;;;;;;4390857;32;20042;-71
2022/02/04 18:36:27;;;;;;;;;;;;;;;;;;4393372;32;20364;-71
2022/02/04 18:39:06;;;;;;;13.50;5.62;;;;;;;;;;4403329;32;19951;-71
2022/02/04 18:44:11;;;;;;;12.37;3.83;;;;;;;;;;4405905;32;20023;-70
2022/02/04 18:49:21;;;;;;;13.27;3.75;;;;;;;;;;4393818;32;20112;-71
2022/02/04 18:54:55;;;;;;;13.10;3.70;;;;;;;;;;4390721;32;20057;-70
2022/02/04 18:57:22;;;;;;;10.05;3.80;;;;;;;;;;4389348;32;20069;-71
2022/02/04 19:02:13;;;;;;;;;;;;;;;;;;4391076;32;20053;-72
2022/02/04 19:04:47;;;;;;;11.52;3.83;;;;;;;;;;4395392;32;19947;-70
2022/02/04 19:07:17;;;;;;;15.75;4.62;;;;;;;;;;4388773;32;20026;-71
2022/02/04 19:09:45;;;;;;;15.73;3.47;;;;;;;;;;4387829;32;20057;-70
2022/02/04 19:12:15;;;;;;;9.40;4.10;;;;;;;;;;4389511;32;20076;-70
2022/02/04 19:15:08;;;;;;;11.00;3.42;;;;;;;;;;4390718;32;20113;-71
2022/02/04 19:17:42;;;;;;;13.60;3.70;;;;;;;;;;4391216;32;20053;-71
2022/02/04 19:20:21;;;;;;;14.25;3.30;;;;;;;;;;4390693;32;20093;-70
2022/02/04 19:22:53;;;;;;;11.60;3.08;;;;;;;;;;4391175;32;20018;-71
2022/02/04 19:25:23;;;;;;;15.90;4.22;;;;;;;;;;4390004;32;20007;-72
2022/02/04 19:27:48;;;;;;;10.70;2.80;;;;;;;;;;4390376;32;20084;-72
2022/02/04 19:30:13;;;;;;;;;;;;;;;;;;4390895;32;20019;-72
2022/02/04 19:32:39;;;;;;;13.35;4.10;;;;;;;;;;4389266;32;19976;-70
2022/02/04 19:35:05;;;;;;;9.50;2.97;;;;;;;;;;4390955;32;20027;-70
2022/02/04 19:37:30;;;;;;;;;;;;;;;;;;4390731;32;20026;-71
2022/02/04 19:39:55;;;;;;;6.80;2.40;;;;;;;;;;4393859;32;20233;-72
2022/02/04 19:42:27;;;;;;;;;;;;;;;;;;4394178;32;20023;-69
2022/02/04 19:44:57;;;;;;;8.75;3.00;;;;;;;;;;4395590;32;19989;-71
2022/02/04 19:47:32;;;;;;;13.25;3.42;;;;;;;;;;4394414;32;20018;-71
2022/02/04 19:52:36;;;;;;;7.90;2.33;;;;;;;;;;4407384;32;20435;-70
2022/02/04 20:17:11;;;;;;;12.85;2.47;;;;;;;;;;4408258;32;20076;-71
2022/02/04 20:25:04;;;;;;;13.02;2.97;;;;;;;;;;4407520;32;20049;-71
2022/02/04 20:27:30;;;;;;;;;;;;;;;;;;4406970;32;20106;-72
2022/02/04 20:29:55;;;;;;;14.35;2.87;;;;;;;;;;4404942;32;19950;-71
2022/02/04 20:32:21;;;;;;;;;;;;;;;;;;4405920;32;20061;-71
2022/02/04 20:34:46;;;;;;;11.77;3.28;;;;;;;;;;4407540;32;19937;-71
2022/02/04 20:37:11;;;;;;;;;;;;;;;;;;4406242;32;20018;-70
2022/02/04 20:40:04;;;;;;;10.98;2.85;;;;;;;;;;4407742;32;20228;-71
2022/02/04 20:42:22;;;;;;;14.20;2.47;;;;;;;;;;4405979;32;20014;-71
2022/02/04 20:44:47;;;;;;;;;;;;;;;;;;4399008;32;20096;-71
2022/02/04 20:47:12;;;;;;;13.77;2.08;;;;;;;;;;4392776;32;19997;-71
2022/02/04 20:49:37;;;;;;;;;;;;;;;;;;4390618;32;20167;-71
2022/02/04 20:52:04;;;;;;;17.17;2.70;;;;;;;;;;4389602;32;19937;-72
2022/02/04 20:54:29;;;;;;;20.33;2.50;;;;;;;;;;4391984;32;20123;-71
2022/02/04 20:56:54;;;;;;;;;;;;;;;;;;4389667;32;20019;-72
2022/02/04 20:59:20;;;;;;;9.05;2.35;;;;;;;;;;4390883;32;19935;-70
2022/02/04 21:01:45;;;;;;;;;;;;;;;;;;4392644;32;20056;-71
2022/02/04 21:04:11;;;;;;;11.30;2.70;;;;;;;;;;4404808;32;19937;-70
2022/02/04 21:06:51;;;;;;;;;;;;;;;;;;4404606;32;20187;-73
2022/02/04 21:09:57;;;;;;;10.82;2.35;;;;;;;;;;4407394;32;19930;-74
2022/02/04 21:15:07;;;;;;;9.98;2.60;;;;;;;;;;4391358;32;20045;-71
2022/02/04 21:17:38;;;;;;;17.83;3.47;;;;;;;;;;4393839;32;20019;-70
2022/02/04 21:20:04;;;;;;;19.65;3.12;;;;;;;;;;4392400;32;20034;-71
2022/02/04 21:22:29;;;;;;;14.32;2.87;;;;;;;;;;4391205;32;20027;-71
2022/02/04 21:24:54;;;;;;;;;;;;;;;;;;4393851;32;20089;-71
2022/02/04 21:27:20;;;;;;;10.95;2.25;;;;;;;;;;4399810;32;19942;-70
2022/02/04 21:29:45;;;;;;;;;;;;;;;;;;4407540;32;20189;-70
2022/02/04 21:32:11;;;;;;;10.10;2.80;;;;;;;;;;4405851;32;20350;-71
2022/02/04 21:37:06;;;;;;;10.35;2.40;;;;;;;;;;4398172;32;19942;-71
2022/02/04 21:39:39;;;;;;;8.80;2.50;;;;;;;;;;4396383;32;20085;-70
2022/02/04 21:42:05;;;;;;;8.38;2.12;;;;;;;;;;4398015;32;20030;-70
2022/02/04 21:44:31;;;;;;;11.73;2.40;;;;;;;;;;4397348;32;20404;-70
2022/02/04 21:46:56;;;;;;;;;;;;;;;;;;4398573;32;20031;-70
2022/02/04 21:49:30;;;;;;;10.70;2.28;;;;;;;;;;4396695;32;19957;-70
2022/02/04 21:51:55;;;;;;;9.85;2.42;;;;;;;;;;4396891;32;20118;-70
2022/02/04 21:54:20;;;;;;;;;;;;;;;;;;4398109;32;20026;-70
2022/02/04 21:56:46;;;;;;;13.57;2.42;;;;;;;;;;4396313;32;20369;-70
2022/02/04 21:59:11;;;;;;;;;;;;;;;;;;4396258;32;20136;-69
2022/02/04 22:01:39;;;;;;;11.80;2.60;;;;;;;;;;4397974;32;19938;-70
2022/02/04 22:04:04;;;;;;;7.40;2.15;;;;;;;;;;4397874;32;20436;-71
2022/02/04 22:06:29;;;;;;;;;;;;;;;;;;4399709;32;20027;-72